Time;durP1;ratioP1;P1;durP2;ratioP2;P2;SDS_P1;SDS_P2;PMS_P1;PMS_P2;Temp;Humidity;BMP_temperature;BMP_pressure;BME280_temperature;BME280_humidity;BME280_pressure;Samples;Min_cycle;Max_cycle;Signal;HPM_P1;HPM_P2
2023/05/11 00:01:36;;;;;;;21.30;17.73;;;;;;;13.31;99.97;101182.06;3616895;39;20047;-68
2023/05/11 00:04:01;;;;;;;20.30;18.15;;;;;;;13.30;99.65;101194.69;3614504;39;20058;-67
2023/05/11 00:06:27;;;;;;;21.63;17.52;;;;;;;13.31;100.00;101192.84;3614090;39;20047;-67
2023/05/11 00:08:53;;;;;;;21.77;18.38;;;;;;;13.31;99.88;101188.31;3614505;39;20061;-68
2023/05/11 00:11:18;;;;;;;19.92;17.45;;;;;;;13.33;100.00;101185.53;3607179;39;20082;-67
2023/05/11 00:13:44;;;;;;;19.98;17.92;;;;;;;13.34;100.00;101188.09;3619315;39;20289;-67
2023/05/11 00:16:10;;;;;;;20.60;17.60;;;;;;;13.31;100.00;101176.66;3615937;39;20081;-67
2023/05/11 00:18:35;;;;;;;21.60;18.40;;;;;;;13.28;100.00;101177.72;3614445;39;20054;-68
2023/05/11 00:21:01;;;;;;;22.45;18.83;;;;;;;13.33;100.00;101174.72;3614286;39;20054;-67
2023/05/11 00:23:27;;;;;;;21.20;17.88;;;;;;;13.22;100.00;101156.50;3616526;39;20406;-67
2023/05/11 00:25:52;;;;;;;21.20;18.17;;;;;;;13.32;100.00;101163.06;3617880;39;20048;-67
2023/05/11 00:28:18;;;;;;;22.90;18.17;;;;;;;13.30;100.00;101169.53;3615322;39;20424;-68
2023/05/11 00:30:44;;;;;;;21.40;18.52;;;;;;;13.31;100.00;101177.50;3616435;39;20058;-67
2023/05/11 00:33:10;;;;;;;21.42;19.13;;;;;;;13.33;99.60;101185.53;3614199;39;20058;-67
2023/05/11 00:35:36;;;;;;;21.33;19.02;;;;;;;13.27;99.91;101184.09;3617361;39;20047;-67
2023/05/11 00:38:01;;;;;;;22.23;19.77;;;;;;;13.28;100.00;101185.81;3617035;39;20354;-67
2023/05/11 00:40:29;;;;;;;22.15;19.17;;;;;;;13.19;99.91;101172.91;3614255;39;20047;-67
2023/05/11 00:42:55;;;;;;;22.95;19.23;;;;;;;13.26;99.97;101186.88;3615794;39;20057;-67
2023/05/11 00:45:20;;;;;;;24.80;19.75;;;;;;;13.22;99.94;101183.50;3615677;39;20054;-67
2023/05/11 00:47:46;;;;;;;24.92;20.85;;;;;;;13.21;100.00;101188.03;3616016;39;20256;-68
2023/05/11 00:50:12;;;;;;;28.25;21.10;;;;;;;13.22;100.00;101186.19;3613634;39;20061;-67
2023/05/11 00:52:38;;;;;;;24.80;21.17;;;;;;;13.20;99.62;101194.41;3618125;39;20114;-67
2023/05/11 00:55:04;;;;;;;29.02;21.50;;;;;;;13.21;99.95;101188.03;3614295;39;20371;-67
2023/05/11 00:57:32;;;;;;;26.80;21.42;;;;;;;13.19;99.94;101200.78;3614031;39;20115;-67
2023/05/11 01:00:01;;;;;;;27.55;21.85;;;;;;;13.20;99.96;101194.41;3613818;39;20379;-67
2023/05/11 01:02:26;;;;;;;26.70;21.55;;;;;;;13.20;100.00;101196.25;3615790;39;20327;-67
2023/05/11 01:04:52;;;;;;;27.42;22.45;;;;;;;13.21;100.00;101198.84;3615096;39;20050;-67
2023/05/11 01:07:36;;;;;;;27.27;21.80;;;;;;;13.22;100.00;101200.59;3613819;39;20766;-67
2023/05/11 01:10:20;;;;;;;28.00;22.13;;;;;;;13.23;100.00;101191.50;3613548;39;20051;-67
2023/05/11 01:13:32;;;;;;;27.77;22.25;;;;;;;13.27;100.00;101191.34;3615507;39;20536;-67
2023/05/11 01:16:11;;;;;;;27.63;22.50;;;;;;;13.29;100.00;101189.38;3614742;39;20361;-66
2023/05/11 01:18:50;;;;;;;27.98;22.73;;;;;;;13.29;99.97;101192.97;3616151;39;20051;-66
2023/05/11 01:21:17;;;;;;;27.20;22.08;;;;;;;13.30;100.00;101193.84;3617273;39;20066;-67
2023/05/11 01:24:07;;;;;;;26.45;22.30;;;;;;;13.29;99.79;101197.47;3615379;39;20047;-67
2023/05/11 01:27:02;;;;;;;30.20;23.88;;;;;;;13.29;99.92;101195.69;3619911;39;20100;-66
2023/05/11 01:29:41;;;;;;;30.65;23.75;;;;;;;13.30;99.56;101196.53;3617325;39;20051;-67
2023/05/11 01:32:26;;;;;;;30.23;22.92;;;;;;;13.24;99.50;101193.25;3613444;39;20305;-67
2023/05/11 01:35:16;;;;;;;29.00;23.98;;;;;;;13.26;98.89;101200.38;3614106;39;20046;-67
2023/05/11 01:37:51;;;;;;;33.72;23.83;;;;;;;13.23;99.09;101202.31;3619584;39;20038;-67
2023/05/11 01:40:25;;;;;;;33.67;24.85;;;;;;;13.23;99.59;101199.59;3614080;39;20069;-67
2023/05/11 01:43:03;;;;;;;34.30;25.35;;;;;;;13.23;99.61;101198.75;3616222;39;20062;-67
2023/05/11 01:45:35;;;;;;;34.88;25.48;;;;;;;12.85;99.38;101133.84;3615894;39;20391;-67
2023/05/11 01:48:13;;;;;;;33.50;25.35;;;;;;;13.19;99.63;101190.00;3616464;39;20051;-67
2023/05/11 01:50:40;;;;;;;30.90;24.88;;;;;;;13.22;99.50;101197.88;3617169;39;20053;-67
2023/05/11 01:53:10;;;;;;;30.77;25.25;;;;;;;13.23;99.76;101193.34;3615735;39;20082;-68
2023/05/11 01:55:40;;;;;;;33.60;26.27;;;;;;;13.22;99.98;101194.28;3616212;39;20560;-68
2023/05/11 01:58:12;;;;;;;33.70;27.13;;;;;;;13.21;100.00;101200.69;3613399;39;20059;-68
2023/05/11 02:00:38;;;;;;;36.70;26.25;;;;;;;13.19;99.96;101189.09;3614048;39;20063;-67
2023/05/11 02:03:08;;;;;;;32.47;26.25;;;;;;;13.21;99.89;101206.06;3614861;39;20316;-68
2023/05/11 02:05:35;;;;;;;31.25;25.90;;;;;;;13.06;100.00;101174.69;3614090;39;20100;-67
2023/05/11 02:08:06;;;;;;;31.85;25.95;;;;;;;13.23;100.00;101196.91;3612927;39;20072;-67
2023/05/11 02:10:35;;;;;;;34.17;26.17;;;;;;;13.13;99.97;101190.41;3615831;39;20046;-68
2023/05/11 02:13:04;;;;;;;37.40;26.75;;;;;;;13.23;100.00;101199.59;3613162;39;20476;-68
2023/05/11 02:15:34;;;;;;;34.15;27.05;;;;;;;13.10;99.89;101174.41;3613662;39;20147;-67
2023/05/11 02:18:05;;;;;;;35.67;27.63;;;;;;;13.20;99.71;101182.75;3612752;39;20058;-67
2023/05/11 02:20:33;;;;;;;35.28;27.35;;;;;;;13.19;100.00;101190.00;3613525;39;20054;-68
2023/05/11 02:23:00;;;;;;;34.95;27.95;;;;;;;13.18;100.00;101190.94;3614187;39;20051;-67
2023/05/11 02:25:28;;;;;;;37.47;28.77;;;;;;;13.15;99.34;101191.16;3614262;39;20047;-67
2023/05/11 02:27:54;;;;;;;35.42;29.15;;;;;;;13.13;99.53;101185.00;3613469;39;20053;-67
2023/05/11 02:30:20;;;;;;;38.55;29.70;;;;;;;13.13;99.83;101187.72;3615812;39;20062;-67
2023/05/11 02:32:55;;;;;;;36.08;28.77;;;;;;;13.11;99.71;101195.03;3613364;39;20390;-67
2023/05/11 02:35:38;;;;;;;38.58;30.50;;;;;;;13.09;99.56;101188.84;3605314;39;20049;-67
2023/05/11 02:38:05;;;;;;;37.63;29.85;;;;;;;12.84;99.51;101148.28;3613483;39;20051;-67
2023/05/11 02:40:41;;;;;;;38.65;30.33;;;;;;;13.07;100.00;101195.34;3613720;39;20270;-67
2023/05/11 02:43:22;;;;;;;41.88;31.92;;;;;;;13.06;99.73;101188.19;3615253;39;20055;-67
2023/05/11 02:45:56;;;;;;;42.05;31.15;;;;;;;13.06;99.77;101189.06;3617405;39;20043;-67
2023/05/11 02:48:29;;;;;;;38.92;30.92;;;;;;;13.05;100.00;101190.03;3618578;39;20054;-67
2023/05/11 02:51:00;;;;;;;37.33;30.90;;;;;;;13.06;100.00;101193.59;3618101;39;20378;-67
2023/05/11 02:53:30;;;;;;;39.92;31.48;;;;;;;13.04;99.71;101185.63;3613345;39;20271;-67
2023/05/11 02:55:57;;;;;;;43.28;31.90;;;;;;;13.02;99.78;101187.53;3604596;39;20043;-67
2023/05/11 02:58:23;;;;;;;42.03;31.63;;;;;;;12.99;99.72;101183.19;3614706;39;20061;-67
2023/05/11 03:00:50;;;;;;;38.13;31.35;;;;;;;12.99;100.00;101193.13;3613488;39;20147;-67
2023/05/11 03:03:16;;;;;;;40.42;32.17;;;;;;;12.96;99.78;101187.94;3614359;39;20074;-67
2023/05/11 03:05:41;;;;;;;41.38;32.40;;;;;;;12.94;99.65;101190.75;3613391;39;20258;-67
2023/05/11 03:08:07;;;;;;;43.33;33.03;;;;;;;12.94;99.64;101192.56;3613016;39;20164;-67
2023/05/11 03:10:34;;;;;;;39.95;31.73;;;;;;;12.91;99.57;101195.50;3616094;39;20042;-67
2023/05/11 03:13:01;;;;;;;41.55;32.03;;;;;;;12.87;98.81;101199.34;3612739;39;20047;-67
2023/05/11 03:15:28;;;;;;;39.35;29.90;;;;;;;12.82;99.20;101199.66;3613022;39;20050;-67
2023/05/11 03:17:56;;;;;;;45.47;33.40;;;;;;;12.79;99.00;101202.56;3615485;39;20308;-67
2023/05/11 03:20:22;;;;;;;39.70;32.05;;;;;;;12.74;99.47;101205.53;3616744;39;20266;-67
2023/05/11 03:22:51;;;;;;;43.00;33.88;;;;;;;12.72;99.79;101204.78;3614813;39;20053;-67
2023/05/11 03:25:18;;;;;;;39.20;32.78;;;;;;;12.71;99.64;101207.56;3614068;39;20073;-67
2023/05/11 03:27:46;;;;;;;40.35;32.88;;;;;;;12.71;99.78;101207.56;3614661;39;20051;-67
2023/05/11 03:30:14;;;;;;;42.10;32.55;;;;;;;12.68;99.17;101205.06;3618272;39;21233;-67
2023/05/11 03:32:40;;;;;;;42.05;32.13;;;;;;;12.66;99.21;101202.47;3618570;39;20043;-67
2023/05/11 03:35:07;;;;;;;42.55;32.33;;;;;;;12.63;99.13;101207.22;3616469;39;20126;-67
2023/05/11 03:37:37;;;;;;;44.40;33.85;;;;;;;12.59;98.96;101201.16;3619023;39;20039;-67
2023/05/11 03:40:06;;;;;;;43.05;32.55;;;;;;;12.52;99.16;101191.69;3616488;39;20058;-67
2023/05/11 03:42:36;;;;;;;40.45;32.55;;;;;;;12.54;99.20;101198.72;3617402;39;20054;-67
2023/05/11 03:45:06;;;;;;;40.55;32.42;;;;;;;12.51;99.43;101209.72;3615334;39;20058;-67
2023/05/11 03:47:34;;;;;;;39.00;32.28;;;;;;;12.50;99.51;101193.66;3615267;39;20270;-68
2023/05/11 03:50:02;;;;;;;40.95;31.67;;;;;;;12.46;98.58;101210.97;3614357;39;20457;-67
2023/05/11 03:52:29;;;;;;;37.75;31.35;;;;;;;12.31;99.33;101170.56;3617334;39;20122;-67
2023/05/11 03:54:56;;;;;;;43.70;34.22;;;;;;;12.26;99.17;101179.88;3615885;39;20308;-67
2023/05/11 03:57:25;;;;;;;43.35;33.72;;;;;;;12.37;99.58;101195.38;3614876;39;20090;-67
2023/05/11 03:59:50;;;;;;;49.50;36.50;;;;;;;12.19;99.84;101171.31;3615381;39;20062;-67
2023/05/11 04:02:16;;;;;;;50.60;38.03;;;;;;;12.34;100.00;101191.06;3615350;39;20059;-67
2023/05/11 04:04:42;;;;;;;52.75;38.38;;;;;;;12.39;100.00;101198.84;3614787;39;20057;-67
2023/05/11 04:07:07;;;;;;;51.70;38.03;;;;;;;12.38;100.00;101195.28;3614202;39;20070;-66
2023/05/11 04:09:33;;;;;;;52.85;38.00;;;;;;;12.40;100.00;101196.06;3614484;39;20043;-67
2023/05/11 04:11:58;;;;;;;56.60;38.88;;;;;;;12.41;100.00;101196.94;3615804;39;20054;-65
2023/05/11 04:14:24;;;;;;;59.22;41.47;;;;;;;12.40;100.00;101198.75;3616261;39;20081;-64
2023/05/11 04:16:50;;;;;;;60.00;41.47;;;;;;;12.40;100.00;101200.56;3616277;39;20065;-64
2023/05/11 04:19:15;;;;;;;63.08;40.88;;;;;;;12.40;100.00;101198.75;3615399;39;20074;-64
2023/05/11 04:21:41;;;;;;;60.63;41.33;;;;;;;12.43;100.00;101194.97;3614468;39;20322;-64
2023/05/11 04:24:07;;;;;;;62.00;40.42;;;;;;;12.44;100.00;101188.66;3616960;39;20066;-65
2023/05/11 04:26:32;;;;;;;58.55;40.72;;;;;;;12.46;99.88;101197.47;3617260;39;20055;-65
2023/05/11 04:28:58;;;;;;;62.13;41.85;;;;;;;12.27;100.00;101168.13;3613816;39;20055;-64
2023/05/11 04:31:23;;;;;;;69.03;44.15;;;;;;;12.43;100.00;101193.19;3618025;39;20408;-64
2023/05/11 04:33:49;;;;;;;58.55;43.15;;;;;;;12.48;99.93;101201.81;3616841;39;20046;-65
2023/05/11 04:36:15;;;;;;;65.53;43.75;;;;;;;12.49;99.95;101195.44;3613563;39;20302;-65
2023/05/11 04:38:41;;;;;;;72.10;46.50;;;;;;;12.46;99.54;101197.47;3616850;39;20050;-65
2023/05/11 04:41:07;;;;;;;60.78;42.13;;;;;;;12.48;99.61;101203.66;3613762;39;20046;-65
2023/05/11 04:43:34;;;;;;;63.35;42.15;;;;;;;12.29;99.77;101172.47;3618056;39;20059;-65
2023/05/11 04:46:00;;;;;;;63.25;43.22;;;;;;;12.50;99.67;101212.53;3613683;39;20098;-64
2023/05/11 04:48:26;;;;;;;60.95;41.47;;;;;;;12.16;99.78;101149.94;3614128;39;20397;-65
2023/05/11 04:50:55;;;;;;;57.42;39.78;;;;;;;12.55;100.00;101207.69;3613833;39;20055;-64
2023/05/11 04:53:21;;;;;;;65.30;42.70;;;;;;;12.61;100.00;101209.13;3618476;39;20051;-65
2023/05/11 04:55:46;;;;;;;66.88;43.13;;;;;;;12.65;100.00;101216.91;3614274;39;20296;-64
2023/05/11 04:58:12;;;;;;;58.88;41.92;;;;;;;12.68;100.00;101218.53;3614133;39;20147;-64
2023/05/11 05:00:37;;;;;;;69.18;41.75;;;;;;;12.70;99.76;101217.50;3615126;39;20063;-65
2023/05/11 05:03:03;;;;;;;64.38;42.72;;;;;;;12.73;100.00;101219.13;3614254;39;20050;-65
2023/05/11 05:05:29;;;;;;;63.15;42.63;;;;;;;12.80;100.00;101225.00;3613895;39;20132;-65
2023/05/11 05:07:54;;;;;;;60.17;41.67;;;;;;;12.83;99.77;101225.66;3613370;39;20059;-65
2023/05/11 05:10:20;;;;;;;60.47;40.60;;;;;;;12.87;100.00;101226.31;3613028;39;20047;-64
2023/05/11 05:12:47;;;;;;;57.95;41.03;;;;;;;12.92;100.00;101232.28;3604869;39;20087;-64
2023/05/11 05:15:12;;;;;;;56.33;40.15;;;;;;;12.97;100.00;101236.44;3613868;39;20132;-65
2023/05/11 05:17:38;;;;;;;58.75;40.53;;;;;;;13.00;99.67;101233.53;3617479;39;20300;-65
2023/05/11 05:20:05;;;;;;;61.38;40.88;;;;;;;13.04;99.84;101241.44;3615323;39;20051;-64
2023/05/11 05:22:33;;;;;;;57.70;40.22;;;;;;;13.07;99.45;101244.78;3616873;39;20632;-65
2023/05/11 05:24:59;;;;;;;56.90;39.60;;;;;;;13.08;99.33;101246.50;3616227;39;20059;-64
2023/05/11 05:27:25;;;;;;;54.38;38.08;;;;;;;13.01;99.16;101232.56;3615268;39;20053;-65
2023/05/11 05:29:51;;;;;;;54.42;39.00;;;;;;;13.11;99.10;101240.06;3613369;39;20043;-65
2023/05/11 05:32:16;;;;;;;56.83;37.92;;;;;;;13.15;98.79;101245.13;3614343;39;20085;-65
2023/05/11 05:34:42;;;;;;;53.35;38.03;;;;;;;13.22;99.42;101249.19;3616256;39;20083;-65
2023/05/11 05:37:08;;;;;;;52.78;38.08;;;;;;;13.29;99.02;101254.19;3616525;39;20332;-65
2023/05/11 05:39:34;;;;;;;54.00;38.10;;;;;;;13.32;99.06;101253.97;3618905;39;20051;-65
2023/05/11 05:42:02;;;;;;;54.20;38.67;;;;;;;13.39;99.64;101250.78;3616127;39;20385;-64
2023/05/11 05:44:27;;;;;;;51.97;37.15;;;;;;;13.33;98.82;101226.03;3618130;39;20425;-66
2023/05/11 05:46:53;;;;;;;50.03;37.60;;;;;;;13.50;98.55;101252.75;3615247;39;20127;-64
2023/05/11 05:49:19;;;;;;;52.60;37.53;;;;;;;13.53;97.52;101252.53;3613102;39;20043;-64
2023/05/11 05:51:45;;;;;;;50.63;37.00;;;;;;;13.56;97.54;101262.28;3613779;39;20073;-65
2023/05/11 05:54:12;;;;;;;51.03;35.70;;;;;;;13.55;96.27;101256.03;3613720;39;20115;-64
2023/05/11 05:56:39;;;;;;;52.67;35.92;;;;;;;13.58;96.58;101260.34;3613731;39;20070;-65
2023/05/11 05:59:07;;;;;;;49.17;37.03;;;;;;;13.60;96.77;101258.41;3613749;39;20389;-65
2023/05/11 06:01:34;;;;;;;51.65;36.65;;;;;;;13.65;96.67;101267.94;3613570;39;20116;-65
2023/05/11 06:04:00;;;;;;;51.10;36.63;;;;;;;13.61;96.41;101258.31;3614106;39;20057;-65
2023/05/11 06:06:26;;;;;;;51.58;36.72;;;;;;;13.69;96.10;101265.88;3613767;39;20421;-65
2023/05/11 06:08:52;;;;;;;55.05;36.88;;;;;;;13.73;96.08;101266.53;3615158;39;20053;-66
2023/05/11 06:11:17;;;;;;;58.88;40.15;;;;;;;13.78;95.82;101267.09;3614902;39;20363;-65
2023/05/11 06:13:43;;;;;;;53.75;39.17;;;;;;;13.67;95.06;101244.38;3613437;39;20317;-65
2023/05/11 06:16:08;;;;;;;53.40;38.00;;;;;;;13.86;95.20;101268.31;3613235;39;20058;-65
2023/05/11 06:18:35;;;;;;;53.50;38.10;;;;;;;13.89;95.47;101275.31;3613007;39;20058;-66
2023/05/11 06:21:00;;;;;;;51.38;37.08;;;;;;;13.92;94.35;101267.91;3615653;39;20238;-66
2023/05/11 06:23:26;;;;;;;56.45;39.47;;;;;;;13.82;94.54;101255.09;3613366;39;20047;-66
2023/05/11 06:25:51;;;;;;;58.42;40.15;;;;;;;13.92;94.27;101280.53;3615684;39;20047;-65
2023/05/11 06:28:17;;;;;;;60.28;39.75;;;;;;;13.93;94.96;101277.72;3613847;39;20348;-66
2023/05/11 06:30:42;;;;;;;53.65;39.15;;;;;;;13.93;94.27;101282.28;3612149;39;20067;-66
2023/05/11 06:33:08;;;;;;;55.60;40.35;;;;;;;13.95;93.88;101285.72;3613692;39;20057;-66
2023/05/11 06:35:36;;;;;;;60.13;36.97;;;;;;;13.92;93.43;101281.41;3613275;39;20057;-66
2023/05/11 06:38:02;;;;;;;56.08;37.72;;;;;;;13.90;93.26;101280.63;3615931;39;20074;-66
2023/05/11 06:40:28;;;;;;;55.17;39.38;;;;;;;13.94;94.33;101281.28;3616035;39;20389;-66
2023/05/11 06:42:53;;;;;;;54.08;37.85;;;;;;;13.91;94.32;101278.78;3614883;39;20053;-66
2023/05/11 06:45:19;;;;;;;58.38;39.25;;;;;;;13.92;95.16;101281.41;3615783;39;20051;-65
2023/05/11 06:47:45;;;;;;;56.40;40.22;;;;;;;13.91;94.75;101286.91;3613890;39;20071;-66
2023/05/11 06:50:10;;;;;;;56.83;39.50;;;;;;;13.78;94.11;101261.69;3613424;39;20058;-65
2023/05/11 06:52:36;;;;;;;57.20;39.38;;;;;;;13.73;93.92;101255.72;3613148;39;20061;-64
2023/05/11 06:55:01;;;;;;;54.10;37.22;;;;;;;13.92;93.51;101286.81;3613313;39;20309;-64
2023/05/11 06:57:28;;;;;;;47.83;36.22;;;;;;;13.90;91.93;101287.88;3612917;39;20062;-65
2023/05/11 06:59:53;;;;;;;56.83;38.05;;;;;;;13.91;92.36;101300.41;3612747;39;20043;-64
2023/05/11 07:02:19;;;;;;;52.60;38.75;;;;;;;13.93;92.52;101295.78;3608673;39;20274;-64
2023/05/11 07:04:45;;;;;;;55.22;39.10;;;;;;;13.93;92.79;101302.06;3613516;39;20078;-65
2023/05/11 07:07:11;;;;;;;56.83;39.30;;;;;;;13.94;93.09;101297.50;3613091;39;20281;-65
2023/05/11 07:09:36;;;;;;;60.38;40.78;;;;;;;13.95;92.83;101301.94;3613979;39;20085;-65
2023/05/11 07:12:02;;;;;;;58.10;40.08;;;;;;;13.97;93.99;101299.13;3613572;39;20054;-66
2023/05/11 07:14:28;;;;;;;60.33;40.85;;;;;;;13.99;93.51;101305.31;3612632;39;20347;-65
2023/05/11 07:16:54;;;;;;;63.90;42.78;;;;;;;13.89;93.74;101286.13;3613045;39;20051;-65
2023/05/11 07:19:19;;;;;;;66.95;43.70;;;;;;;13.98;93.78;101308.97;3615479;39;20054;-66
2023/05/11 07:21:45;;;;;;;68.07;45.33;;;;;;;13.96;93.72;101309.09;3613343;39;20089;-65
2023/05/11 07:24:10;;;;;;;71.55;44.17;;;;;;;13.95;93.93;101307.34;3613648;39;20436;-65
2023/05/11 07:26:36;;;;;;;79.38;47.47;;;;;;;13.96;93.56;101309.09;3612364;39;20101;-65
2023/05/11 07:29:02;;;;;;;77.03;46.85;;;;;;;13.95;93.66;101315.44;3613120;39;20062;-65
2023/05/11 07:31:28;;;;;;;84.53;49.38;;;;;;;13.94;93.30;101311.03;3613055;39;20045;-65
2023/05/11 07:33:55;;;;;;;83.97;49.83;;;;;;;13.95;93.40;101312.75;3612929;39;20054;-65
2023/05/11 07:36:20;;;;;;;84.45;47.97;;;;;;;13.75;93.25;101280.81;3612962;39;20320;-65
2023/05/11 07:38:46;;;;;;;82.85;48.72;;;;;;;13.90;93.25;101309.50;3614850;39;20058;-65
2023/05/11 07:41:12;;;;;;;85.00;49.60;;;;;;;13.90;93.72;101304.97;3613626;39;20079;-66
2023/05/11 07:43:37;;;;;;;89.28;49.00;;;;;;;13.90;93.32;101315.78;3613649;39;20061;-65
2023/05/11 07:46:03;;;;;;;88.93;50.42;;;;;;;13.91;93.29;101316.63;3612994;39;20417;-66
2023/05/11 07:48:29;;;;;;;83.70;49.72;;;;;;;13.88;93.43;101316.84;3612654;39;20057;-66
2023/05/11 07:50:54;;;;;;;87.50;48.97;;;;;;;13.88;94.16;101317.69;3614184;39;20299;-66
2023/05/11 07:53:20;;;;;;;85.63;48.72;;;;;;;13.84;93.07;101315.31;3612915;39;20384;-66
2023/05/11 07:55:46;;;;;;;85.80;49.65;;;;;;;13.85;93.15;101319.75;3613115;39;20059;-66
2023/05/11 07:58:11;;;;;;;88.15;51.20;;;;;;;13.86;92.80;101324.19;3612720;39;20063;-66
2023/05/11 08:00:37;;;;;;;91.10;51.72;;;;;;;13.83;92.55;101319.00;3613055;39;20059;-66
2023/05/11 08:03:03;;;;;;;89.80;52.22;;;;;;;13.84;92.61;101320.72;3613193;39;20065;-66
2023/05/11 08:05:31;;;;;;;86.55;50.45;;;;;;;13.81;92.23;101316.41;3612351;39;20118;-66
2023/05/11 08:07:57;;;;;;;90.57;51.80;;;;;;;13.78;91.50;101311.19;3614952;39;20091;-66
2023/05/11 08:10:23;;;;;;;93.85;53.05;;;;;;;13.87;91.68;101323.22;3612824;39;20175;-66
2023/05/11 08:12:48;;;;;;;88.40;50.70;;;;;;;13.86;90.93;101329.56;3616701;39;20059;-65
2023/05/11 08:15:14;;;;;;;87.50;51.97;;;;;;;13.89;90.54;101334.78;3609540;39;20581;-65
2023/05/11 08:17:41;;;;;;;86.53;51.53;;;;;;;13.89;90.43;101329.38;3609052;39;20075;-66
2023/05/11 08:20:08;;;;;;;87.85;52.50;;;;;;;13.89;89.52;101329.38;3614563;39;20046;-66
2023/05/11 08:22:34;;;;;;;92.85;54.80;;;;;;;13.70;90.45;101294.63;3615434;39;20047;-65
2023/05/11 08:24:59;;;;;;;99.63;57.72;;;;;;;13.94;90.61;101338.91;3614341;39;20364;-66
2023/05/11 08:27:25;;;;;;;91.80;54.15;;;;;;;13.98;90.05;101331.44;3616799;39;20053;-66
2023/05/11 08:29:50;;;;;;;92.70;54.10;;;;;;;14.01;88.83;101333.94;3614284;39;20058;-66
2023/05/11 08:32:16;;;;;;;94.40;55.80;;;;;;;14.12;89.49;101330.53;3614614;39;20065;-66
2023/05/11 08:34:43;;;;;;;90.95;54.03;;;;;;;14.25;88.66;101333.25;3615687;39;20316;-66
2023/05/11 08:37:09;;;;;;;91.28;52.80;;;;;;;14.34;89.13;101324.50;3618455;39;20046;-66
2023/05/11 08:39:34;;;;;;;88.43;53.28;;;;;;;14.47;87.59;101328.06;3615260;39;20054;-66
2023/05/11 08:42:04;;;;;;;82.53;49.88;;;;;;;14.51;86.77;101332.31;3613910;39;20043;-65
2023/05/11 08:44:34;;;;;;;77.15;48.35;;;;;;;14.53;85.94;101329.53;3614125;39;20057;-66
2023/05/11 08:47:00;;;;;;;82.07;49.88;;;;;;;14.52;86.36;101328.63;3615726;39;20183;-66
2023/05/11 08:49:26;;;;;;;87.40;50.80;;;;;;;14.52;86.30;101331.34;3613904;39;20370;-66
2023/05/11 08:51:52;;;;;;;82.07;49.83;;;;;;;14.53;86.56;101330.38;3613757;39;20050;-65
2023/05/11 08:54:17;;;;;;;87.15;50.22;;;;;;;14.55;86.47;101322.16;3614208;39;20297;-66
2023/05/11 08:56:46;;;;;;;84.95;49.97;;;;;;;14.65;86.78;101333.19;3618497;39;20069;-66
2023/05/11 08:59:14;;;;;;;85.95;51.45;;;;;;;14.68;86.44;101331.13;3613982;39;20059;-66
2023/05/11 09:01:40;;;;;;;83.40;51.88;;;;;;;14.69;85.89;101340.13;3614394;39;20710;-66
2023/05/11 09:04:07;;;;;;;83.13;52.03;;;;;;;14.74;86.65;101332.53;3614805;39;20075;-66
2023/05/11 09:06:35;;;;;;;77.45;49.63;;;;;;;14.74;83.89;101344.22;3617370;39;20363;-66
2023/05/11 09:09:01;;;;;;;81.15;52.28;;;;;;;14.48;85.49;101294.63;3617599;39;20047;-66
2023/05/11 09:11:28;;;;;;;81.63;50.20;;;;;;;14.77;85.23;101343.13;3614582;39;20054;-65
2023/05/11 09:13:53;;;;;;;79.43;51.60;;;;;;;14.75;83.95;101334.28;3614097;39;20081;-65
2023/05/11 09:16:19;;;;;;;92.82;53.63;;;;;;;14.83;85.15;101342.72;3616959;39;20412;-66
2023/05/11 09:18:52;;;;;;;83.82;53.38;;;;;;;14.87;84.18;101338.78;3615003;39;20066;-66
2023/05/11 09:21:19;;;;;;;88.10;53.13;;;;;;;14.97;85.03;101345.31;3613939;39;20381;-66
2023/05/11 09:23:49;;;;;;;82.43;49.95;;;;;;;15.07;82.72;101348.22;3614382;39;20055;-66
2023/05/11 09:26:28;;;;;;;85.35;51.15;;;;;;;15.16;82.93;101343.94;3615777;39;20039;-66
2023/05/11 09:28:58;;;;;;;81.82;51.22;;;;;;;14.92;82.00;101297.88;3617676;39;20054;-66
2023/05/11 09:31:44;;;;;;;87.10;52.72;;;;;;;15.17;79.66;101353.81;3614212;39;20051;-67
2023/05/11 09:34:19;;;;;;;85.55;51.45;;;;;;;15.12;81.23;101350.56;3614129;39;20104;-66
2023/05/11 09:36:52;;;;;;;83.30;51.40;;;;;;;15.06;79.93;101347.34;3614398;39;20104;-66
2023/05/11 09:39:30;;;;;;;82.50;52.00;;;;;;;15.06;81.41;101347.34;3614418;39;20061;-66
2023/05/11 09:42:13;;;;;;;85.82;52.42;;;;;;;14.97;80.28;101348.00;3613710;39;20151;-66
2023/05/11 09:44:40;;;;;;;88.85;53.20;;;;;;;14.96;82.38;101354.38;3613932;39;20066;-66
2023/05/11 09:47:15;;;;;;;74.85;47.95;;;;;;;14.95;79.30;101354.50;3613491;39;20093;-66
2023/05/11 09:49:43;;;;;;;79.68;49.60;;;;;;;14.97;79.38;101353.44;3613429;39;20050;-66
2023/05/11 09:52:14;;;;;;;77.03;48.72;;;;;;;15.01;79.43;101354.94;3614633;39;20047;-66
2023/05/11 09:54:50;;;;;;;74.15;47.88;;;;;;;15.03;79.01;101352.09;3613591;39;20063;-67
2023/05/11 09:57:28;;;;;;;77.45;47.17;;;;;;;15.06;78.00;101352.78;3614169;39;20382;-66
2023/05/11 09:59:57;;;;;;;72.50;47.28;;;;;;;15.02;77.58;101358.50;3615637;39;20058;-66
2023/05/11 10:02:29;;;;;;;76.47;47.53;;;;;;;14.87;79.57;101327.97;3614137;39;20047;-65
2023/05/11 10:04:59;;;;;;;76.25;47.28;;;;;;;15.09;79.87;101355.22;3613656;39;20058;-66
2023/05/11 10:07:35;;;;;;;71.32;46.85;;;;;;;15.05;79.57;101353.72;3617954;39;20310;-66
2023/05/11 10:10:08;;;;;;;73.95;46.78;;;;;;;15.08;79.59;101353.50;3613917;39;20059;-66
2023/05/11 10:12:37;;;;;;;72.97;48.20;;;;;;;15.07;78.93;101357.19;3613491;39;20059;-67
2023/05/11 10:15:10;;;;;;;75.13;45.83;;;;;;;15.04;80.33;101346.59;3613475;39;20046;-66
2023/05/11 10:17:36;;;;;;;82.30;49.05;;;;;;;15.05;80.79;101342.03;3616451;39;20140;-66
2023/05/11 10:20:05;;;;;;;67.25;46.08;;;;;;;15.04;78.63;101357.41;3613606;39;20056;-66
2023/05/11 10:22:31;;;;;;;70.28;45.75;;;;;;;14.82;80.04;101316.63;3614541;39;20051;-66
2023/05/11 10:24:58;;;;;;;74.75;46.53;;;;;;;15.09;80.82;101360.63;3613687;39;20043;-66
2023/05/11 10:27:25;;;;;;;81.65;48.38;;;;;;;15.10;78.46;101361.53;3613200;39;20050;-66
2023/05/11 10:29:51;;;;;;;75.07;46.42;;;;;;;15.13;78.70;101358.59;3613218;39;20055;-66
2023/05/11 10:32:19;;;;;;;72.28;46.40;;;;;;;15.22;78.95;101359.75;3613274;39;20047;-66
2023/05/11 10:34:47;;;;;;;71.70;46.55;;;;;;;15.39;79.88;101353.13;3613194;39;20062;-67
2023/05/11 10:37:15;;;;;;;72.75;46.85;;;;;;;15.55;78.43;101351.84;3613784;39;20395;-67
2023/05/11 10:39:43;;;;;;;67.22;44.80;;;;;;;15.60;76.30;101350.66;3613454;39;20361;-66
2023/05/11 10:42:42;;;;;;;70.97;44.38;;;;;;;15.67;76.73;101357.38;3613671;39;20050;-66
2023/05/11 10:45:48;;;;;;;65.53;43.88;;;;;;;15.56;74.28;101352.72;3615184;39;20078;-66
2023/05/11 10:48:25;;;;;;;69.18;44.22;;;;;;;15.53;74.74;101353.81;3614512;39;20151;-66
2023/05/11 10:51:06;;;;;;;70.20;45.03;;;;;;;15.55;76.01;101351.00;3613776;39;20057;-66
2023/05/11 10:53:52;;;;;;;67.63;43.80;;;;;;;15.61;75.15;101349.69;3612896;39;20377;-66
2023/05/11 10:56:54;;;;;;;74.47;45.25;;;;;;;15.69;76.51;101348.13;3616214;39;20057;-65
2023/05/11 11:00:08;;;;;;;73.75;44.28;;;;;;;15.89;76.31;101349.38;3614174;39;20382;-66
2023/05/11 11:02:36;;;;;;;67.80;44.10;;;;;;;16.04;74.89;101344.59;3613737;39;20374;-66
2023/05/11 11:05:06;;;;;;;70.25;44.58;;;;;;;16.24;74.55;101340.38;3613452;39;20051;-65
2023/05/11 11:07:57;;;;;;;67.43;42.90;;;;;;;16.47;72.20;101335.84;3613382;39;20108;-66
2023/05/11 11:10:31;;;;;;;62.80;42.60;;;;;;;16.71;72.06;101331.22;3609085;39;20051;-66
2023/05/11 11:13:09;;;;;;;57.05;38.85;;;;;;;16.97;68.97;101340.97;3613449;39;20057;-66
2023/05/11 11:15:52;;;;;;;61.00;39.83;;;;;;;17.26;70.40;101342.22;3615488;39;20054;-65